Augusta/Daniel Field, Georgia
Current Conditions -  °F | °C
As of 11:53 PM on Thursday 30 Oct 2014 (Local Time) from KDNL Reporting Station
Clear Clear  
Wind Chill: 58°   Ceiling: Unl
Heat Index: 58°   Visibility: 10mi
Dew Point: 41°   Wind: 6mph
Humidity: 53%   Direction: 340°NNW
Pressure: 29.96"   Gusts: NA
Location:  33.47°N, 82.03°W
Report Text: KDNL 310353Z AUTO 34005KT 10SM CLR 14/05 A2996 RMK AO2 SLP142 T01440050
Loading
Personal Weather Stations






























Interactive Weather Map
Tropical Storm Tracking
New forecast layout! Learn more

10-Day Weather Forecast

Advertisements
Track Severe Weather on mobile